PWSweather.com
Personal Weather Stations
Station Observations
CW9610
Rural Jefferson County, Mclouth, KS 66054

Rural Jefferson CountyMclouth, KS 66054

Lat: 39.1947, Lon: -95.238

Elevation: 1151

Station Type: Davis VP2

http://mclwx.info

Latest ConditionsUpdated 4:00:00 PM CST Sunday, Jan 25, 2015
Currently Today's Max Today's Min Today's Average
Temperature 37.9°F3.3°C 46.9°F8.3°C 35.6°F2.0°C 40.1°F4.5°C
Dew Point 33.2°F0.7°C 41.8°F5.4°C 31.6°F-0.2°C 35.2°F1.8°C
Winds 13.0 mph NW20.9 kmh NW 20.0 mph NNW32.2 kmh NNW - 13.4 mph 21.6 kmh
Wind Gusts 19.0 mph30.6 kmh 31.0 mph49.9 kmh - -
Humidity 83% 87% 77% 83%
Pressure 30.01 in1016.3 mb 30.01 in1016.3 mb 29.66 in1004.4 mb -
Precipitation - 0.01 in0.3 mm - -
Hour Temp Dew Point Humidity Winds Wind Gusts Pressure Precip Precip Rate Daily Precip Total
04:00 PM 37.9°F3.3°C 33.2°F0.7°C 83% 13.0 mph NW20.9 kmh NW 19.0 mph30.6 kmh 30.01 in1016.3 mb 0.00 in0.0 mm 0.00 in/hr0.0 mm/hr 0.01 in0.3 mm
03:40 PM 37.3°F2.9°C 32.9°F0.5°C 84% 14.0 mph NW22.5 kmh NW 22.0 mph35.4 kmh 29.99 in1015.6 mb 0.00 in0.0 mm 0.00 in/hr0.0 mm/hr 0.01 in0.3 mm
03:20 PM 37.2°F2.9°C 32.8°F0.4°C 84% 14.0 mph NW22.5 kmh NW 21.0 mph33.8 kmh 29.97 in1014.9 mb 0.00 in0.0 mm 0.00 in/hr0.0 mm/hr 0.01 in0.3 mm
03:00 PM 37.1°F2.8°C 32.7°F0.4°C 84% 14.0 mph NW22.5 kmh NW 22.0 mph35.4 kmh 29.96 in1014.6 mb 0.00 in0.0 mm 0.00 in/hr0.0 mm/hr 0.01 in0.3 mm
02:40 PM 37.1°F2.8°C 33.0°F0.6°C 85% 16.0 mph NNW25.7 kmh NNW 24.0 mph38.6 kmh 29.95 in1014.2 mb 0.00 in0.0 mm 0.00 in/hr0.0 mm/hr 0.01 in0.3 mm
02:20 PM 37.2°F2.9°C 32.8°F0.4°C 84% 17.0 mph NNW27.4 kmh NNW 25.0 mph40.2 kmh 29.93 in1013.5 mb 0.00 in0.0 mm 0.00 in/hr0.0 mm/hr 0.01 in0.3 mm
02:00 PM 37.2°F2.9°C 33.1°F0.6°C 85% 17.0 mph NW27.4 kmh NW 26.0 mph41.8 kmh 29.91 in1012.9 mb 0.00 in0.0 mm 0.00 in/hr0.0 mm/hr 0.01 in0.3 mm
01:40 PM 37.2°F2.9°C 33.4°F0.8°C 86% 20.0 mph NNW32.2 kmh NNW 27.0 mph43.5 kmh 29.90 in1012.5 mb 0.00 in0.0 mm 0.00 in/hr0.0 mm/hr 0.01 in0.3 mm
01:20 PM 37.1°F2.8°C 33.3°F0.7°C 86% 18.0 mph NNW29.0 kmh NNW 31.0 mph49.9 kmh 29.89 in1012.2 mb 0.00 in0.0 mm 0.00 in/hr0.0 mm/hr 0.01 in0.3 mm
01:00 PM 37.4°F3.0°C 33.6°F0.9°C 86% 16.0 mph NNW25.7 kmh NNW 25.0 mph40.2 kmh 29.88 in1011.9 mb 0.00 in0.0 mm 0.00 in/hr0.0 mm/hr 0.01 in0.3 mm
12:40 PM 37.3°F2.9°C 33.5°F0.8°C 86% 19.0 mph NW30.6 kmh NW 28.0 mph45.1 kmh 29.87 in1011.5 mb 0.00 in0.0 mm 0.00 in/hr0.0 mm/hr 0.01 in0.3 mm
12:20 PM 37.3°F2.9°C 33.2°F0.7°C 85% 19.0 mph NW30.6 kmh NW 28.0 mph45.1 kmh 29.86 in1011.2 mb 0.00 in0.0 mm 0.00 in/hr0.0 mm/hr 0.01 in0.3 mm
12:00 PM 37.5°F3.1°C 33.4°F0.8°C 85% 19.0 mph NW30.6 kmh NW 27.0 mph43.5 kmh 29.85 in1010.8 mb 0.00 in0.0 mm 0.00 in/hr0.0 mm/hr 0.01 in0.3 mm
11:40 AM 37.2°F2.9°C 33.4°F0.8°C 86% 19.0 mph NW30.6 kmh NW 26.0 mph41.8 kmh 29.85 in1010.8 mb 0.00 in0.0 mm 0.00 in/hr0.0 mm/hr 0.01 in0.3 mm
11:20 AM 36.8°F2.7°C 33.0°F0.6°C 86% 17.0 mph NW27.4 kmh NW 25.0 mph40.2 kmh 29.84 in1010.5 mb 0.00 in0.0 mm 0.00 in/hr0.0 mm/hr 0.01 in0.3 mm
11:00 AM 36.7°F2.6°C 32.9°F0.5°C 86% 15.0 mph NW24.1 kmh NW 21.0 mph33.8 kmh 29.83 in1010.2 mb 0.00 in0.0 mm 0.00 in/hr0.0 mm/hr 0.01 in0.3 mm
10:40 AM 36.3°F2.4°C 32.8°F0.4°C 87% 15.0 mph NW24.1 kmh NW 25.0 mph40.2 kmh 29.82 in1009.8 mb 0.00 in0.0 mm 0.00 in/hr0.0 mm/hr 0.01 in0.3 mm
10:20 AM 36.0°F2.2°C 32.5°F0.3°C 87% 14.0 mph NW22.5 kmh NW 23.0 mph37.0 kmh 29.81 in1009.5 mb 0.00 in0.0 mm 0.00 in/hr0.0 mm/hr 0.01 in0.3 mm
10:00 AM 35.6°F2.0°C 32.1°F0.1°C 87% 14.0 mph NW22.5 kmh NW 19.0 mph30.6 kmh 29.80 in1009.1 mb 0.00 in0.0 mm 0.00 in/hr0.0 mm/hr 0.01 in0.3 mm
09:40 AM 36.2°F2.3°C 32.1°F0.1°C 85% 15.0 mph NW24.1 kmh NW 23.0 mph37.0 kmh 29.79 in1008.8 mb 0.00 in0.0 mm 0.00 in/hr0.0 mm/hr 0.01 in0.3 mm
09:20 AM 36.0°F2.2°C 31.9°F-0.1°C 85% 15.0 mph NW24.1 kmh NW 23.0 mph37.0 kmh 29.78 in1008.5 mb 0.00 in0.0 mm 0.00 in/hr0.0 mm/hr 0.01 in0.3 mm
09:00 AM 36.4°F2.4°C 31.7°F-0.2°C 83% 16.0 mph NW25.7 kmh NW 27.0 mph43.5 kmh 29.77 in1008.1 mb 0.00 in0.0 mm 0.00 in/hr0.0 mm/hr 0.01 in0.3 mm
08:40 AM 36.5°F2.5°C 31.8°F-0.1°C 83% 15.0 mph NW24.1 kmh NW 23.0 mph37.0 kmh 29.76 in1007.8 mb 0.00 in0.0 mm 0.00 in/hr0.0 mm/hr 0.01 in0.3 mm
08:20 AM 36.6°F2.6°C 31.6°F-0.2°C 82% 15.0 mph NW24.1 kmh NW 25.0 mph40.2 kmh 29.75 in1007.5 mb 0.00 in0.0 mm 0.00 in/hr0.0 mm/hr 0.01 in0.3 mm
08:00 AM 36.7°F2.6°C 31.7°F-0.2°C 82% 16.0 mph NW25.7 kmh NW 27.0 mph43.5 kmh 29.74 in1007.1 mb 0.00 in0.0 mm 0.00 in/hr0.0 mm/hr 0.01 in0.3 mm
07:40 AM 36.9°F2.7°C 31.9°F-0.1°C 82% 14.0 mph NW22.5 kmh NW 28.0 mph45.1 kmh 29.74 in1007.1 mb 0.00 in0.0 mm 0.00 in/hr0.0 mm/hr 0.01 in0.3 mm
07:20 AM 37.4°F3.0°C 32.4°F0.2°C 82% 15.0 mph NW24.1 kmh NW 28.0 mph45.1 kmh 29.73 in1006.8 mb 0.00 in0.0 mm 0.00 in/hr0.0 mm/hr 0.01 in0.3 mm
07:00 AM 38.1°F3.4°C 32.5°F0.3°C 80% 17.0 mph NW27.4 kmh NW 25.0 mph40.2 kmh 29.72 in1006.4 mb 0.00 in0.0 mm 0.00 in/hr0.0 mm/hr 0.01 in0.3 mm
06:40 AM 39.2°F4.0°C 33.2°F0.7°C 79% 16.0 mph NW25.7 kmh NW 27.0 mph43.5 kmh 29.71 in1006.1 mb 0.00 in0.0 mm 0.00 in/hr0.0 mm/hr 0.01 in0.3 mm
06:20 AM 39.9°F4.4°C 33.6°F0.9°C 78% 16.0 mph NW25.7 kmh NW 27.0 mph43.5 kmh 29.69 in1005.4 mb 0.00 in0.0 mm 0.00 in/hr0.0 mm/hr 0.01 in0.3 mm
06:00 AM 41.3°F5.2°C 34.6°F1.4°C 77% 17.0 mph NW27.4 kmh NW 27.0 mph43.5 kmh 29.69 in1005.4 mb 0.00 in0.0 mm 0.00 in/hr0.0 mm/hr 0.01 in0.3 mm
05:40 AM 42.5°F5.8°C 36.1°F2.3°C 78% 13.0 mph NW20.9 kmh NW 23.0 mph37.0 kmh 29.67 in1004.7 mb 0.00 in0.0 mm 0.00 in/hr0.0 mm/hr 0.01 in0.3 mm
05:20 AM 43.1°F6.2°C 36.7°F2.6°C 78% 14.0 mph NW22.5 kmh NW 24.0 mph38.6 kmh 29.67 in1004.7 mb 0.00 in0.0 mm 0.00 in/hr0.0 mm/hr 0.01 in0.3 mm
05:00 AM 43.8°F6.6°C 38.3°F3.5°C 81% 12.0 mph NW19.3 kmh NW 15.0 mph24.1 kmh 29.67 in1004.7 mb 0.00 in0.0 mm 0.00 in/hr0.0 mm/hr 0.01 in0.3 mm
04:40 AM 44.4°F6.9°C 38.3°F3.5°C 79% 15.0 mph WNW24.1 kmh WNW 24.0 mph38.6 kmh 29.66 in1004.4 mb 0.00 in0.0 mm 0.00 in/hr0.0 mm/hr 0.01 in0.3 mm
04:20 AM 44.9°F7.2°C 38.8°F3.8°C 79% 13.0 mph WNW20.9 kmh WNW 25.0 mph40.2 kmh 29.66 in1004.4 mb 0.00 in0.0 mm 0.00 in/hr0.0 mm/hr 0.01 in0.3 mm
04:00 AM 44.9°F7.2°C 39.1°F3.9°C 80% 10.0 mph WNW16.1 kmh WNW 18.0 mph29.0 kmh 29.66 in1004.4 mb 0.00 in0.0 mm 0.00 in/hr0.0 mm/hr 0.01 in0.3 mm
03:40 AM 45.2°F7.3°C 38.7°F3.7°C 78% 10.0 mph WNW16.1 kmh WNW 23.0 mph37.0 kmh 29.66 in1004.4 mb 0.00 in0.0 mm 0.00 in/hr0.0 mm/hr 0.01 in0.3 mm
03:20 AM 45.4°F7.4°C 38.6°F3.7°C 77% 10.0 mph WNW16.1 kmh WNW 20.0 mph32.2 kmh 29.66 in1004.4 mb 0.00 in0.0 mm 0.00 in/hr0.0 mm/hr 0.01 in0.3 mm
03:00 AM 45.0°F7.2°C 38.6°F3.7°C 78% 7.0 mph WNW11.3 kmh WNW 14.0 mph22.5 kmh 29.67 in1004.7 mb 0.00 in0.0 mm 0.00 in/hr0.0 mm/hr 0.01 in0.3 mm
02:40 AM 45.4°F7.4°C 38.9°F3.8°C 78% 8.0 mph WNW12.9 kmh WNW 15.0 mph24.1 kmh 29.66 in1004.4 mb 0.00 in0.0 mm 0.00 in/hr0.0 mm/hr 0.01 in0.3 mm
02:20 AM 45.2°F7.3°C 39.4°F4.1°C 80% 6.0 mph WNW9.7 kmh WNW 13.0 mph20.9 kmh 29.67 in1004.7 mb 0.01 in0.3 mm 0.00 in/hr0.0 mm/hr 0.01 in0.3 mm
02:00 AM 45.7°F7.6°C 39.9°F4.4°C 80% 8.0 mph WNW12.9 kmh WNW 11.0 mph17.7 kmh 29.67 in1004.7 mb 0.01 in0.3 mm 0.00 in/hr0.0 mm/hr 0.01 in0.3 mm
01:40 AM 45.5°F7.5°C 40.3°F4.6°C 82% 7.0 mph W11.3 kmh W 11.0 mph17.7 kmh 29.67 in1004.7 mb 0.01 in0.3 mm 0.03 in/hr0.8 mm/hr 0.01 in0.3 mm
01:20 AM 45.5°F7.5°C 40.9°F4.9°C 84% 5.0 mph W8.0 kmh W 9.0 mph14.5 kmh 29.67 in1004.7 mb 0.00 in0.0 mm 0.00 in/hr0.0 mm/hr 0.00 in0.0 mm
01:00 AM 45.5°F7.5°C 41.6°F5.3°C 86% 6.0 mph W9.7 kmh W 7.0 mph11.3 kmh 29.67 in1004.7 mb 0.00 in0.0 mm 0.00 in/hr0.0 mm/hr 0.00 in0.0 mm
12:40 AM 46.4°F8.0°C 41.8°F5.4°C 84% 5.0 mph W8.0 kmh W 9.0 mph14.5 kmh 29.68 in1005.1 mb 0.00 in0.0 mm 0.00 in/hr0.0 mm/hr 0.00 in0.0 mm
12:20 AM 46.5°F8.1°C 41.6°F5.3°C 83% 6.0 mph W9.7 kmh W 9.0 mph14.5 kmh 29.68 in1005.1 mb 0.00 in0.0 mm 0.00 in/hr0.0 mm/hr 0.00 in0.0 mm
12:00 AM 46.9°F8.3°C 41.1°F5.1°C 80% 6.0 mph W9.7 kmh W 10.0 mph16.1 kmh 29.69 in1005.4 mb 0.00 in0.0 mm 0.00 in/hr0.0 mm/hr 0.00 in0.0 mm